RSJ weather

Rancho San Jose Airport
Teapa, Tabasco, Mexico

Public forecast

Using degrees Celsius for public forecast. Weather courtesy of forecast.io.

Closest aviation weather report (METAR) to Rancho San Jose Airport

Closest report is Carlos Rovirosa Pérez International Airport, 25.8 nm (47.7 km) NNE. Retrieved 2020/02/23 23:47 UTC (24 minutes ago):

MMVA 232347Z 08007KT 7SM SCT018 25/17 A2998 RMK SLP149 57007 991 8/100

Closest aviation forecast (TAF) to Rancho San Jose Airport

Forecast is more than 6 hours old.

Closest forecast is Carlos Rovirosa Pérez International Airport, 25.8 nm (47.7 km) NNE. Retrieved 2020/02/23 18:00 UTC (6 hours ago):

TAF MMVA 231657Z 2318/2418 10015KT SCT015 BKN050 FM240300 00000KT 3SM BR OVC005 FM241200 00000KT 1SM BR OVC002 FM241600 12010KT 3SM BR SCT005 OVC015